Time,TemperatureF,DewpointF,PressureIn,WindDirection,WindDirectionDegrees,WindSpeedMPH,WindSpeedGustMPH,Humidity,HourlyPrecipIn,Conditions,Clouds,dailyrainin,SolarRadiationWatts/m^2,SoftwareType,DateUTC
2013-11-02 00:03:00,62.0,37.0,-100.00,SE,128,2.0,4.0,39,0.00,,,0.00,1.000000,,2013-11-02 07:03:00,
2013-11-02 00:12:00,62.0,37.0,-100.00,SE,128,2.0,4.0,39,0.00,,,0.00,1.000000,,2013-11-02 07:12:00,
2013-11-02 00:42:00,66.0,30.0,-100.00,North,3,4.0,6.0,26,0.00,,,0.00,1.000000,,2013-11-02 07:42:00,
2013-11-02 00:52:00,66.0,30.0,-100.00,North,3,4.0,6.0,26,0.00,,,0.00,1.000000,,2013-11-02 07:52:00,
2013-11-02 01:02:00,66.0,30.0,-100.00,North,3,4.0,6.0,26,0.00,,,0.00,1.000000,,2013-11-02 08:02:00,
2013-11-02 01:12:00,66.0,30.0,-100.00,North,3,4.0,6.0,26,0.00,,,0.00,1.000000,,2013-11-02 08:12:00,
2013-11-02 01:42:00,60.0,34.0,-100.00,SW,223,1.0,3.0,38,0.00,,,0.00,1.000000,,2013-11-02 08:42:00,
2013-11-02 01:52:00,60.0,34.0,-100.00,SW,223,1.0,3.0,38,0.00,,,0.00,1.000000,,2013-11-02 08:52:00,
2013-11-02 02:02:00,60.0,34.0,-100.00,SW,223,1.0,3.0,38,0.00,,,0.00,1.000000,,2013-11-02 09:02:00,
2013-11-02 02:11:00,60.0,34.0,-100.00,SW,223,1.0,3.0,38,0.00,,,0.00,1.000000,,2013-11-02 09:11:00,
2013-11-02 02:43:00,62.0,31.0,-100.00,NE,47,7.0,8.0,31,0.00,,,0.00,1.000000,,2013-11-02 09:43:00,
2013-11-02 02:53:00,62.0,31.0,-100.00,NE,47,7.0,8.0,31,0.00,,,0.00,1.000000,,2013-11-02 09:53:00,
2013-11-02 03:03:00,62.0,31.0,-100.00,NE,47,7.0,8.0,31,0.00,,,0.00,1.000000,,2013-11-02 10:03:00,
2013-11-02 03:12:00,62.0,31.0,-100.00,NE,47,7.0,8.0,31,0.00,,,0.00,1.000000,,2013-11-02 10:12:00,
2013-11-02 03:42:00,62.0,31.0,-100.00,ENE,57,0.0,9.0,31,0.00,,,0.00,1.000000,,2013-11-02 10:42:00,
2013-11-02 03:53:00,62.0,31.0,-100.00,ENE,57,0.0,9.0,31,0.00,,,0.00,1.000000,,2013-11-02 10:53:00,
2013-11-02 04:02:00,62.0,31.0,-100.00,ENE,57,0.0,9.0,31,0.00,,,0.00,1.000000,,2013-11-02 11:02:00,
2013-11-02 04:12:00,62.0,31.0,-100.00,ENE,57,0.0,9.0,31,0.00,,,0.00,1.000000,,2013-11-02 11:12:00,
2013-11-02 04:42:00,56.0,38.0,-100.00,South,184,1.0,2.0,50,0.00,,,0.00,1.000000,,2013-11-02 11:42:00,
2013-11-02 04:52:00,56.0,38.0,-100.00,South,184,1.0,2.0,50,0.00,,,0.00,1.000000,,2013-11-02 11:52:00,
2013-11-02 05:01:00,56.0,38.0,-100.00,South,184,1.0,2.0,50,0.00,,,0.00,1.000000,,2013-11-02 12:01:00,
2013-11-02 05:11:00,56.0,38.0,-100.00,South,184,1.0,2.0,50,0.00,,,0.00,1.000000,,2013-11-02 12:11:00,
2013-11-02 05:42:00,58.0,33.0,-100.00,East,81,5.0,6.0,38,0.00,,,0.00,1.000000,,2013-11-02 12:42:00,
2013-11-02 05:52:00,58.0,33.0,-100.00,East,81,5.0,6.0,38,0.00,,,0.00,1.000000,,2013-11-02 12:52:00,
2013-11-02 06:02:00,58.0,33.0,-100.00,East,81,5.0,6.0,38,0.00,,,0.00,1.000000,,2013-11-02 13:02:00,
2013-11-02 06:11:00,58.0,33.0,-100.00,East,81,5.0,6.0,38,0.00,,,0.00,1.000000,,2013-11-02 13:11:00,
2013-11-02 06:42:00,60.0,31.0,-100.00,NE,55,0.0,7.0,33,0.00,,,0.00,1.000000,,2013-11-02 13:42:00,
2013-11-02 06:52:00,60.0,31.0,-100.00,NE,55,0.0,7.0,33,0.00,,,0.00,1.000000,,2013-11-02 13:52:00,
2013-11-02 07:01:00,60.0,31.0,-100.00,NE,55,0.0,7.0,33,0.00,,,0.00,1.000000,,2013-11-02 14:01:00,
2013-11-02 07:11:00,60.0,31.0,-100.00,NE,55,0.0,7.0,33,0.00,,,0.00,1.000000,,2013-11-02 14:11:00,
2013-11-02 07:42:00,60.0,32.0,-100.00,NE,53,0.0,0.0,34,0.00,,,0.00,5.000000,,2013-11-02 14:42:00,
2013-11-02 07:52:00,60.0,32.0,-100.00,NE,53,0.0,0.0,34,0.00,,,0.00,5.000000,,2013-11-02 14:52:00,
2013-11-02 08:02:00,60.0,32.0,-100.00,NE,53,0.0,0.0,34,0.00,,,0.00,5.000000,,2013-11-02 15:02:00,
2013-11-02 08:11:00,60.0,32.0,-100.00,NE,53,0.0,0.0,34,0.00,,,0.00,5.000000,,2013-11-02 15:11:00,
2013-11-02 09:13:00,64.0,34.0,-100.00,North,0,1.0,5.0,32,0.00,,,0.00,131.000000,,2013-11-02 16:13:00,
2013-11-02 09:43:00,68.0,32.0,-100.00,NE,40,7.0,10.0,26,0.00,,,0.00,330.000000,,2013-11-02 16:43:00,
2013-11-02 09:54:00,68.0,32.0,-100.00,NE,40,7.0,10.0,26,0.00,,,0.00,330.000000,,2013-11-02 16:54:00,
2013-11-02 10:03:00,68.0,32.0,-100.00,NE,40,7.0,10.0,26,0.00,,,0.00,330.000000,,2013-11-02 17:03:00,
2013-11-02 10:12:00,68.0,32.0,-100.00,NE,40,7.0,10.0,26,0.00,,,0.00,330.000000,,2013-11-02 17:12:00,
2013-11-02 10:43:00,74.0,34.0,-100.00,NE,38,7.0,11.0,23,0.00,,,-99.99,511.000000,,2013-11-02 17:43:00,
2013-11-02 10:53:00,74.0,34.0,-100.00,NE,38,7.0,11.0,23,0.00,,,-99.99,511.000000,,2013-11-02 17:53:00,
2013-11-02 11:02:00,74.0,34.0,-100.00,NE,38,7.0,11.0,23,0.00,,,-99.99,511.000000,,2013-11-02 18:02:00,
2013-11-02 11:12:00,74.0,34.0,-100.00,NE,38,7.0,11.0,23,0.00,,,-99.99,511.000000,,2013-11-02 18:12:00,
2013-11-02 11:42:00,78.0,32.0,-100.00,NNE,23,7.0,10.0,19,0.00,,,-99.99,647.000000,,2013-11-02 18:42:00,
2013-11-02 11:52:00,78.0,32.0,-100.00,NNE,23,7.0,10.0,19,0.00,,,-99.99,647.000000,,2013-11-02 18:52:00,
2013-11-02 12:01:00,78.0,32.0,-100.00,NNE,23,7.0,10.0,19,0.00,,,-99.99,647.000000,,2013-11-02 19:01:00,
2013-11-02 12:11:00,78.0,32.0,-100.00,NNE,23,7.0,10.0,19,0.00,,,-99.99,647.000000,,2013-11-02 19:11:00,
2013-11-02 12:42:00,81.0,32.0,-100.00,NNE,24,5.0,9.0,17,0.00,,,0.00,725.000000,,2013-11-02 19:42:00,
2013-11-02 12:52:00,81.0,32.0,-100.00,NNE,24,5.0,9.0,17,0.00,,,0.00,725.000000,,2013-11-02 19:52:00,
2013-11-02 13:02:00,81.0,32.0,-100.00,NNE,24,5.0,9.0,17,0.00,,,0.00,725.000000,,2013-11-02 20:02:00,
2013-11-02 13:12:00,81.0,32.0,-100.00,NNE,24,5.0,9.0,17,0.00,,,0.00,725.000000,,2013-11-02 20:12:00,
2013-11-02 13:43:00,83.0,34.0,-100.00,WNW,288,5.0,8.0,17,0.00,,,0.00,734.000000,,2013-11-02 20:43:00,
2013-11-02 13:53:00,83.0,34.0,-100.00,WNW,288,5.0,8.0,17,0.00,,,0.00,734.000000,,2013-11-02 20:53:00,
2013-11-02 14:02:00,83.0,34.0,-100.00,WNW,288,5.0,8.0,17,0.00,,,0.00,734.000000,,2013-11-02 21:02:00,
2013-11-02 14:12:00,83.0,34.0,-100.00,WNW,288,5.0,8.0,17,0.00,,,0.00,734.000000,,2013-11-02 21:12:00,
2013-11-02 14:44:00,84.0,31.0,-100.00,West,265,4.0,8.0,15,0.00,,,0.00,673.000000,,2013-11-02 21:44:00,
2013-11-02 14:54:00,84.0,31.0,-100.00,West,265,4.0,8.0,15,0.00,,,0.00,673.000000,,2013-11-02 21:54:00,
2013-11-02 15:03:00,84.0,31.0,-100.00,West,265,4.0,8.0,15,0.00,,,0.00,673.000000,,2013-11-02 22:03:00,
2013-11-02 15:13:00,84.0,31.0,-100.00,West,265,4.0,8.0,15,0.00,,,0.00,673.000000,,2013-11-02 22:13:00,
2013-11-02 15:44:00,84.0,31.0,-100.00,West,273,5.0,6.0,15,0.00,,,0.00,548.000000,,2013-11-02 22:44:00,
2013-11-02 15:54:00,84.0,31.0,-100.00,West,273,5.0,6.0,15,0.00,,,0.00,548.000000,,2013-11-02 22:54:00,
2013-11-02 16:02:00,84.0,31.0,-100.00,West,273,5.0,6.0,15,0.00,,,0.00,548.000000,,2013-11-02 23:02:00,
2013-11-02 16:12:00,84.0,31.0,-100.00,West,273,5.0,6.0,15,0.00,,,0.00,548.000000,,2013-11-02 23:12:00,
2013-11-02 16:42:00,82.0,28.0,-100.00,SW,227,3.0,6.0,14,0.00,,,0.00,264.000000,,2013-11-02 23:42:00,
2013-11-02 16:52:00,82.0,28.0,-100.00,SW,227,3.0,6.0,14,0.00,,,0.00,264.000000,,2013-11-02 23:52:00,
2013-11-02 17:01:00,82.0,28.0,-100.00,SW,227,3.0,6.0,14,0.00,,,0.00,264.000000,,2013-11-03 00:01:00,
2013-11-02 17:11:00,82.0,28.0,-100.00,SW,227,3.0,6.0,14,0.00,,,0.00,264.000000,,2013-11-03 00:11:00,
2013-11-02 17:42:00,80.0,33.0,-100.00,South,191,5.0,6.0,18,0.00,,,0.00,73.000000,,2013-11-03 00:42:00,
2013-11-02 17:52:00,80.0,33.0,-100.00,South,191,5.0,6.0,18,0.00,,,0.00,73.000000,,2013-11-03 00:52:00,
2013-11-02 18:02:00,80.0,33.0,-100.00,South,191,5.0,6.0,18,0.00,,,0.00,73.000000,,2013-11-03 01:02:00,
2013-11-02 18:11:00,80.0,33.0,-100.00,South,191,5.0,6.0,18,0.00,,,0.00,73.000000,,2013-11-03 01:11:00,
2013-11-02 18:42:00,77.0,35.0,-100.00,ESE,115,4.0,7.0,22,0.00,,,0.00,11.000000,,2013-11-03 01:42:00,
2013-11-02 18:52:00,77.0,35.0,-100.00,ESE,115,4.0,7.0,22,0.00,,,0.00,11.000000,,2013-11-03 01:52:00,
2013-11-02 19:02:00,77.0,35.0,-100.00,ESE,115,4.0,7.0,22,0.00,,,0.00,11.000000,,2013-11-03 02:02:00,
2013-11-02 19:11:00,77.0,35.0,-100.00,ESE,115,4.0,7.0,22,0.00,,,0.00,11.000000,,2013-11-03 02:11:00,
2013-11-02 19:43:00,74.0,34.0,-100.00,SSE,163,6.0,7.0,23,0.00,,,0.00,1.000000,,2013-11-03 02:43:00,
2013-11-02 19:52:00,74.0,34.0,-100.00,SSE,163,6.0,7.0,23,0.00,,,0.00,1.000000,,2013-11-03 02:52:00,
2013-11-02 20:02:00,74.0,34.0,-100.00,SSE,163,6.0,7.0,23,0.00,,,0.00,1.000000,,2013-11-03 03:02:00,
2013-11-02 20:11:00,74.0,34.0,-100.00,SSE,163,6.0,7.0,23,0.00,,,0.00,1.000000,,2013-11-03 03:11:00,
2013-11-02 20:45:00,74.0,32.0,-100.00,SSE,155,6.0,7.0,21,0.00,,,0.00,1.000000,,2013-11-03 03:45:00,
2013-11-02 20:54:00,74.0,32.0,-100.00,SSE,155,6.0,7.0,21,0.00,,,0.00,1.000000,,2013-11-03 03:54:00,
2013-11-02 21:02:00,-999.0,-99.9,-100.00,SSE,155,6.0,7.0,-999,-99.99,,,-99.99,1.000000,,2013-11-03 04:02:00,
2013-11-02 21:13:00,74.0,32.0,-100.00,SSE,155,6.0,7.0,21,0.00,,,0.00,1.000000,,2013-11-03 04:13:00,
2013-11-02 21:44:00,71.0,35.0,-100.00,SE,144,7.0,8.0,27,0.00,,,0.00,1.000000,,2013-11-03 04:44:00,
2013-11-02 21:52:00,71.0,35.0,-100.00,SE,144,7.0,8.0,27,0.00,,,0.00,1.000000,,2013-11-03 04:52:00,
2013-11-02 22:03:00,71.0,35.0,-100.00,SE,144,7.0,8.0,27,0.00,,,0.00,1.000000,,2013-11-03 05:03:00,
2013-11-02 22:13:00,71.0,35.0,-100.00,SE,144,7.0,8.0,27,0.00,,,0.00,1.000000,,2013-11-03 05:13:00,
2013-11-02 22:43:00,66.0,33.0,-100.00,SSE,152,4.0,9.0,29,0.00,,,0.00,1.000000,,2013-11-03 05:43:00,
2013-11-02 22:53:00,66.0,33.0,-100.00,SSE,152,4.0,9.0,29,0.00,,,0.00,1.000000,,2013-11-03 05:53:00,
2013-11-02 23:03:00,66.0,33.0,-100.00,SSE,152,4.0,9.0,29,0.00,,,0.00,1.000000,,2013-11-03 06:03:00,
2013-11-02 23:12:00,66.0,33.0,-100.00,SSE,152,4.0,9.0,29,0.00,,,0.00,1.000000,,2013-11-03 06:12:00,
2013-11-02 23:43:00,65.0,31.0,-100.00,SE,146,5.0,9.0,28,0.00,,,0.00,1.000000,,2013-11-03 06:43:00,
2013-11-02 23:53:00,65.0,31.0,-100.00,SE,146,5.0,9.0,28,0.00,,,0.00,1.000000,,2013-11-03 06:53:00,